28分钟前
罗盘
风向 的 风向 360° Bordeaux-Mérignac Airport 5/23
风: 2 千吨, 1 beaufort
乌云 & 能见度
METAR LFBD 230230Z AUTO 36002KT CAVOK 14/13 Q1021 TEMPO 3000 MIFG

METAR定义 | 嵌入

24小时趋势

航班类别VFRLIFR
温度24 °C13 °C
风速6 千吨0 千吨
风向360°000°
能见度10 公里+0 米
昆士兰州10261021

更多历史数据

下载我们的安卓应用程序

从你的主屏幕上轻松地访问你的航空天气。
只需一次付费,您就可以获得无广告的体验。

您会帮助我们保持Metar-Taf.com正常运行吗?
您的贡献有助于网站的进一步开发并支付费用。

没有更多广告

您是捐款5美元还是更多?然后,我们将永远不会再向您展示广告,这是我们永恒的感谢!
捐赠前先登录

METAR Bordeaux-Mérignac Airport

Bordeaux-Mérignac Airport是Bordeaux/Mérignac,法国中的大型机场。 机场有{a,plural,=1{一条跑道} other{#跑道}}: 5/23 (3.100 米) 和 11/29

该报告是针对2021年9月23日 04:30, 当地时间上的Bordeaux-Mérignac Airport所做的。

机场观察

风来自北 (360°)方向,速度为2 千吨。

天气为CAVOK。这意味着在5.000 ft或MSA(最低安全高度)以下(以较高者为准)以下没有云。这也意味着没有观测到积雨云或高耸的积云,可见度为10 公里 或者更多或更高。此外,不会有雾,降雨或其他重要天气。

温度和风寒是14 °C。 露点为13 °C,相对湿度为94%。 海平面上的气压为1021 压力 (QNH)。

发展趋势

  • 暂时的

    可变方向的风很小或没有。 可见性变为3 公里。 重大天气:浅的 多雾路段。

白天

今天,太阳从07:51升起,在19:58降落。 这适用于Bordeaux-Mérignac Airport,世界夏令时可能有所不同。 当地时间与世界标准时间之间的时差为+2 小时。 夏令时目前正在进行中。

您是否要在网站上Bordeaux-Mérignac Airport飞行的天气? 阅读更多   自由!